Time,TemperatureF,DewpointF,PressureIn,WindDirection,WindDirectionDegrees,WindSpeedMPH,WindSpeedGustMPH,Humidity,HourlyPrecipIn,Conditions,Clouds,dailyrainin,SoftwareType,DateUTC
2013-01-04 00:00:00,28.7,19.8,30.22,ESE,122,1.0,1.0,69,0.00,,,0.00,Wunderground v.1.15,2013-01-04 05:00:00,
2013-01-04 00:10:00,27.2,19.0,30.21,ESE,120,0.0,0.0,71,0.00,,,0.00,Wunderground v.1.15,2013-01-04 05:10:00,
2013-01-04 00:15:00,26.8,19.0,30.21,ESE,120,0.0,0.0,72,0.00,,,0.00,Wunderground v.1.15,2013-01-04 05:15:00,
2013-01-04 00:25:00,26.1,18.9,30.21,SSW,208,0.0,1.0,74,0.00,,,0.00,Wunderground v.1.15,2013-01-04 05:25:00,
2013-01-04 00:30:00,25.7,18.6,30.21,SSW,204,0.0,1.0,74,0.00,,,0.00,Wunderground v.1.15,2013-01-04 05:30:00,
2013-01-04 00:40:00,24.8,18.3,30.21,WNW,291,1.0,1.0,76,0.00,,,0.00,Wunderground v.1.15,2013-01-04 05:40:00,
2013-01-04 00:45:00,24.6,18.4,30.21,South,178,0.0,1.0,77,0.00,,,0.00,Wunderground v.1.15,2013-01-04 05:45:00,
2013-01-04 00:50:00,24.5,18.3,30.21,SSE,149,0.0,1.0,77,0.00,,,0.00,Wunderground v.1.15,2013-01-04 05:50:00,
2013-01-04 00:55:00,24.5,18.6,30.21,South,176,0.0,1.0,78,0.00,,,0.00,Wunderground v.1.15,2013-01-04 05:55:00,
2013-01-04 01:00:00,24.7,18.8,30.21,East,92,0.0,0.0,78,0.00,,,0.00,Wunderground v.1.15,2013-01-04 06:00:00,
2013-01-04 01:05:00,24.9,19.0,30.21,East,95,0.0,0.0,78,0.00,,,0.00,Wunderground v.1.15,2013-01-04 06:05:00,
2013-01-04 01:15:00,25.2,19.0,30.21,West,266,1.0,2.0,77,0.00,,,0.00,Wunderground v.1.15,2013-01-04 06:15:00,
2013-01-04 01:20:00,24.9,18.4,30.21,West,267,1.0,1.0,76,0.00,,,0.00,Wunderground v.1.15,2013-01-04 06:20:00,
2013-01-04 01:25:00,24.8,18.3,30.21,West,274,1.0,1.0,76,0.00,,,0.00,Wunderground v.1.15,2013-01-04 06:25:00,
2013-01-04 01:30:00,24.6,18.7,30.22,ESE,110,1.0,1.0,78,0.00,,,0.00,Wunderground v.1.15,2013-01-04 06:30:00,
2013-01-04 01:35:00,24.3,18.4,30.21,East,90,1.0,1.0,78,0.00,,,0.00,Wunderground v.1.15,2013-01-04 06:35:00,
2013-01-04 01:40:00,24.1,18.5,30.21,SW,229,0.0,2.0,79,0.00,,,0.00,Wunderground v.1.15,2013-01-04 06:40:00,
2013-01-04 01:45:00,24.3,18.4,30.22,West,263,0.0,2.0,78,0.00,,,0.00,Wunderground v.1.15,2013-01-04 06:45:00,
2013-01-04 01:50:00,24.2,18.6,30.22,West,267,1.0,2.0,79,0.00,,,0.00,Wunderground v.1.15,2013-01-04 06:50:00,
2013-01-04 01:55:00,24.2,18.3,30.22,WSW,257,1.0,3.0,78,0.00,,,0.00,Wunderground v.1.15,2013-01-04 06:55:00,
2013-01-04 02:00:00,23.9,18.3,30.22,WSW,255,3.0,3.0,79,0.00,,,0.00,Wunderground v.1.15,2013-01-04 07:00:00,
2013-01-04 02:05:00,23.8,18.2,30.23,ENE,73,2.0,5.0,79,0.00,,,0.00,Wunderground v.1.15,2013-01-04 07:05:00,
2013-01-04 02:10:00,24.0,18.7,30.23,ESE,119,2.0,3.0,80,0.00,,,0.00,Wunderground v.1.15,2013-01-04 07:10:00,
2013-01-04 02:15:00,24.5,18.9,30.23,SW,235,2.0,3.0,79,0.00,,,0.00,Wunderground v.1.15,2013-01-04 07:15:00,
2013-01-04 02:20:00,24.8,18.9,30.23,WSW,250,2.0,2.0,78,0.00,,,0.00,Wunderground v.1.15,2013-01-04 07:20:00,
2013-01-04 02:25:00,25.0,18.8,30.24,West,277,1.0,3.0,77,0.00,,,0.00,Wunderground v.1.15,2013-01-04 07:25:00,
2013-01-04 02:30:00,25.2,19.0,30.24,West,261,1.0,1.0,77,0.00,,,0.00,Wunderground v.1.15,2013-01-04 07:30:00,
2013-01-04 02:35:00,25.4,18.9,30.24,WNW,284,2.0,2.0,76,0.00,,,0.00,Wunderground v.1.15,2013-01-04 07:35:00,
2013-01-04 02:40:00,25.5,19.0,30.24,WNW,284,1.0,1.0,76,0.00,,,0.00,Wunderground v.1.15,2013-01-04 07:40:00,
2013-01-04 02:45:00,25.5,18.7,30.24,West,277,1.0,1.0,75,0.00,,,0.00,Wunderground v.1.15,2013-01-04 07:45:00,
2013-01-04 02:50:00,25.0,18.5,30.23,West,269,2.0,3.0,76,0.00,,,0.00,Wunderground v.1.15,2013-01-04 07:50:00,
2013-01-04 02:55:00,25.1,18.6,30.24,WNW,283,2.0,3.0,76,0.00,,,0.00,Wunderground v.1.15,2013-01-04 07:55:00,
2013-01-04 03:00:00,24.9,18.4,30.24,East,101,1.0,1.0,76,0.00,,,0.00,Wunderground v.1.15,2013-01-04 08:00:00,
2013-01-04 03:05:00,24.9,18.4,30.24,South,184,1.0,1.0,76,0.00,,,0.00,Wunderground v.1.15,2013-01-04 08:05:00,
2013-01-04 03:10:00,24.9,18.7,30.24,SSW,203,1.0,2.0,77,0.00,,,0.00,Wunderground v.1.15,2013-01-04 08:10:00,
2013-01-04 03:15:00,25.6,19.7,30.24,West,274,1.0,2.0,78,0.00,,,0.00,Wunderground v.1.15,2013-01-04 08:15:00,
2013-01-04 03:20:00,26.1,19.6,30.24,East,98,1.0,2.0,76,0.00,,,0.00,Wunderground v.1.15,2013-01-04 08:20:00,
2013-01-04 03:25:00,26.4,19.2,30.24,NW,308,1.0,2.0,74,0.00,,,0.00,Wunderground v.1.15,2013-01-04 08:25:00,
2013-01-04 03:35:00,25.8,19.0,30.24,WNW,285,0.0,1.0,75,0.00,,,0.00,Wunderground v.1.15,2013-01-04 08:35:00,
2013-01-04 03:40:00,25.7,18.9,30.24,West,278,0.0,1.0,75,0.00,,,0.00,Wunderground v.1.15,2013-01-04 08:40:00,
2013-01-04 03:45:00,25.4,18.6,30.24,West,278,0.0,1.0,75,0.00,,,0.00,Wunderground v.1.15,2013-01-04 08:45:00,
2013-01-04 03:50:00,25.2,18.4,30.24,West,259,1.0,1.0,75,0.00,,,0.00,Wunderground v.1.15,2013-01-04 08:50:00,
2013-01-04 03:55:00,24.7,18.2,30.24,West,259,1.0,1.0,76,0.00,,,0.00,Wunderground v.1.15,2013-01-04 08:55:00,
2013-01-04 04:00:00,24.2,18.0,30.24,West,259,0.0,0.0,77,0.00,,,0.00,Wunderground v.1.15,2013-01-04 09:00:00,
2013-01-04 04:05:00,24.0,18.1,30.24,ESE,103,0.0,0.0,78,0.00,,,0.00,Wunderground v.1.15,2013-01-04 09:05:00,
2013-01-04 04:10:00,24.0,18.4,30.25,ESE,103,1.0,1.0,79,0.00,,,0.00,Wunderground v.1.15,2013-01-04 09:10:00,
2013-01-04 04:15:00,23.8,18.2,30.25,ESE,103,0.0,1.0,79,0.00,,,0.00,Wunderground v.1.15,2013-01-04 09:15:00,
2013-01-04 04:20:00,23.6,18.3,30.24,ESE,103,0.0,0.0,80,0.00,,,0.00,Wunderground v.1.15,2013-01-04 09:20:00,
2013-01-04 04:25:00,23.4,18.1,30.24,West,271,0.0,1.0,80,0.00,,,0.00,Wunderground v.1.15,2013-01-04 09:25:00,
2013-01-04 04:30:00,23.0,17.7,30.24,West,271,1.0,1.0,80,0.00,,,0.00,Wunderground v.1.15,2013-01-04 09:30:00,
2013-01-04 04:35:00,23.1,18.1,30.24,West,259,1.0,1.0,81,0.00,,,0.00,Wunderground v.1.15,2013-01-04 09:35:00,
2013-01-04 04:45:00,22.4,17.7,30.25,West,275,0.0,1.0,82,0.00,,,0.00,Wunderground v.1.15,2013-01-04 09:45:00,
2013-01-04 04:50:00,22.3,17.6,30.24,SSW,197,0.0,0.0,82,0.00,,,0.00,Wunderground v.1.15,2013-01-04 09:50:00,
2013-01-04 05:00:00,23.3,18.6,30.25,ESE,121,0.0,1.0,82,0.00,,,0.00,Wunderground v.1.15,2013-01-04 10:00:00,
2013-01-04 05:05:00,23.9,19.2,30.24,SSW,194,1.0,1.0,82,0.00,,,0.00,Wunderground v.1.15,2013-01-04 10:05:00,
2013-01-04 05:10:00,23.8,18.5,30.24,West,273,1.0,1.0,80,0.00,,,0.00,Wunderground v.1.15,2013-01-04 10:10:00,
2013-01-04 05:15:00,24.2,19.2,30.24,West,277,1.0,1.0,81,0.00,,,0.00,Wunderground v.1.15,2013-01-04 10:15:00,
2013-01-04 05:20:00,24.5,18.9,30.24,SE,137,1.0,1.0,79,0.00,,,0.00,Wunderground v.1.15,2013-01-04 10:20:00,
2013-01-04 05:25:00,25.1,19.5,30.24,SW,215,1.0,5.0,79,0.00,,,0.00,Wunderground v.1.15,2013-01-04 10:25:00,
2013-01-04 05:30:00,26.5,19.6,30.24,WSW,249,2.0,2.0,75,0.00,,,0.00,Wunderground v.1.15,2013-01-04 10:30:00,
2013-01-04 05:35:00,27.5,20.0,30.24,WSW,248,3.0,3.0,73,0.00,,,0.00,Wunderground v.1.15,2013-01-04 10:35:00,
2013-01-04 05:40:00,27.9,19.7,30.24,South,183,2.0,2.0,71,0.00,,,0.00,Wunderground v.1.15,2013-01-04 10:40:00,
2013-01-04 05:45:00,27.5,19.3,30.24,ESE,111,1.0,2.0,71,0.00,,,0.00,Wunderground v.1.15,2013-01-04 10:45:00,
2013-01-04 05:50:00,27.0,19.2,30.24,SSW,194,1.0,1.0,72,0.00,,,0.00,Wunderground v.1.15,2013-01-04 10:50:00,
2013-01-04 05:55:00,26.6,19.4,30.24,SSE,162,1.0,1.0,74,0.00,,,0.00,Wunderground v.1.15,2013-01-04 10:55:00,
2013-01-04 06:00:00,26.2,19.0,30.24,South,169,1.0,1.0,74,0.00,,,0.00,Wunderground v.1.15,2013-01-04 11:00:00,
2013-01-04 06:10:00,25.5,18.7,30.24,SE,137,0.0,0.0,75,0.00,,,0.00,Wunderground v.1.15,2013-01-04 11:10:00,
2013-01-04 06:20:00,25.8,19.3,30.24,SW,226,0.0,2.0,76,0.00,,,0.00,Wunderground v.1.15,2013-01-04 11:20:00,
2013-01-04 06:30:00,26.3,18.8,30.24,WSW,249,1.0,1.0,73,0.00,,,0.00,Wunderground v.1.15,2013-01-04 11:30:00,
2013-01-04 06:35:00,27.1,19.3,30.24,WSW,239,2.0,2.0,72,0.00,,,0.00,Wunderground v.1.15,2013-01-04 11:35:00,
2013-01-04 06:40:00,27.8,19.6,30.24,WSW,255,2.0,2.0,71,0.00,,,0.00,Wunderground v.1.15,2013-01-04 11:40:00,
2013-01-04 06:45:00,27.7,19.2,30.24,SE,124,1.0,2.0,70,0.00,,,0.00,Wunderground v.1.15,2013-01-04 11:45:00,
2013-01-04 06:49:00,26.7,18.9,30.24,South,170,0.0,0.0,72,0.00,,,0.00,Wunderground v.1.15,2013-01-04 11:49:00,
2013-01-04 06:55:00,26.2,19.0,30.24,SE,145,1.0,1.0,74,0.00,,,0.00,Wunderground v.1.15,2013-01-04 11:55:00,
2013-01-04 07:00:00,25.6,18.8,30.24,SSW,195,1.0,2.0,75,0.00,,,0.00,Wunderground v.1.15,2013-01-04 12:00:00,
2013-01-04 07:05:00,25.7,18.9,30.24,West,262,1.0,2.0,75,0.00,,,0.00,Wunderground v.1.15,2013-01-04 12:05:00,
2013-01-04 07:10:00,26.3,19.1,30.24,WSW,243,2.0,2.0,74,0.00,,,0.00,Wunderground v.1.15,2013-01-04 12:10:00,
2013-01-04 07:15:00,27.1,19.3,30.24,SW,225,2.0,2.0,72,0.00,,,0.00,Wunderground v.1.15,2013-01-04 12:15:00,
2013-01-04 07:20:00,26.8,18.7,30.24,South,190,2.0,2.0,71,0.00,,,0.00,Wunderground v.1.15,2013-01-04 12:20:00,
2013-01-04 07:25:00,26.5,18.7,30.24,SSW,204,1.0,2.0,72,0.00,,,0.00,Wunderground v.1.15,2013-01-04 12:25:00,
2013-01-04 07:30:00,26.2,18.7,30.24,SW,221,1.0,1.0,73,0.00,,,0.00,Wunderground v.1.15,2013-01-04 12:30:00,
2013-01-04 07:35:00,26.0,18.5,30.24,SSW,207,1.0,1.0,73,0.00,,,0.00,Wunderground v.1.15,2013-01-04 12:35:00,
2013-01-04 07:40:00,25.8,18.7,30.24,WSW,238,0.0,1.0,74,0.00,,,0.00,Wunderground v.1.15,2013-01-04 12:40:00,
2013-01-04 07:45:00,24.8,17.7,30.24,West,275,1.0,1.0,74,0.00,,,0.00,Wunderground v.1.15,2013-01-04 12:45:00,
2013-01-04 07:50:00,24.2,17.7,30.24,West,276,0.0,0.0,76,0.00,,,0.00,Wunderground v.1.15,2013-01-04 12:50:00,
2013-01-04 07:55:00,23.9,17.4,30.24,West,276,0.0,0.0,76,0.00,,,0.00,Wunderground v.1.15,2013-01-04 12:55:00,
2013-01-04 08:00:00,23.5,17.6,30.24,WSW,248,0.0,1.0,78,0.00,,,0.00,Wunderground v.1.15,2013-01-04 13:00:00,
2013-01-04 08:10:00,24.6,18.4,30.24,SW,232,0.0,0.0,77,0.00,,,0.00,Wunderground v.1.15,2013-01-04 13:10:00,
2013-01-04 08:15:00,25.1,18.6,30.24,SW,232,0.0,0.0,76,0.00,,,0.00,Wunderground v.1.15,2013-01-04 13:15:00,
2013-01-04 08:20:00,25.4,18.9,30.23,SW,215,0.0,0.0,76,0.00,,,0.00,Wunderground v.1.15,2013-01-04 13:20:00,
2013-01-04 08:25:00,26.1,18.9,30.23,West,270,0.0,1.0,74,0.00,,,0.00,Wunderground v.1.15,2013-01-04 13:25:00,
2013-01-04 08:30:00,26.2,19.7,30.24,West,261,0.0,0.0,76,0.00,,,0.00,Wunderground v.1.15,2013-01-04 13:30:00,
2013-01-04 08:35:00,27.0,20.1,30.23,SSW,195,0.0,0.0,75,0.00,,,0.00,Wunderground v.1.15,2013-01-04 13:35:00,
2013-01-04 08:40:00,28.2,21.0,30.24,SE,131,0.0,1.0,74,0.00,,,0.00,Wunderground v.1.15,2013-01-04 13:40:00,
2013-01-04 08:50:00,29.3,21.1,30.23,WSW,238,1.0,1.0,71,0.00,,,0.00,Wunderground v.1.15,2013-01-04 13:50:00,
2013-01-04 08:55:00,29.9,21.3,30.24,South,188,1.0,2.0,70,0.00,,,0.00,Wunderground v.1.15,2013-01-04 13:55:00,
2013-01-04 09:00:00,30.2,21.2,30.24,South,189,2.0,2.0,69,0.00,,,0.00,Wunderground v.1.15,2013-01-04 14:00:00,
2013-01-04 09:10:00,31.3,22.3,30.24,SSE,167,1.0,1.0,69,0.00,,,0.00,Wunderground v.1.15,2013-01-04 14:10:00,
2013-01-04 09:20:00,31.9,22.2,30.24,East,101,2.0,2.0,67,0.00,,,0.00,Wunderground v.1.15,2013-01-04 14:20:00,
2013-01-04 09:30:00,32.8,23.0,30.24,ESE,123,2.0,2.0,67,0.00,,,0.00,Wunderground v.1.15,2013-01-04 14:30:00,
2013-01-04 09:35:00,32.9,23.1,30.24,SSE,159,2.0,2.0,67,0.00,,,0.00,Wunderground v.1.15,2013-01-04 14:35:00,
2013-01-04 09:45:00,34.0,23.5,30.24,SSW,194,2.0,3.0,65,0.00,,,0.00,Wunderground v.1.15,2013-01-04 14:45:00,
2013-01-04 09:50:00,34.3,23.0,30.25,SSW,208,3.0,3.0,63,0.00,,,0.00,Wunderground v.1.15,2013-01-04 14:50:00,
2013-01-04 09:55:00,34.3,21.8,30.25,SSW,204,4.0,5.0,60,0.00,,,0.00,Wunderground v.1.15,2013-01-04 14:55:00,
2013-01-04 10:00:00,34.3,22.2,30.25,SSW,205,5.0,5.0,61,0.00,,,0.00,Wunderground v.1.15,2013-01-04 15:00:00,
2013-01-04 10:05:00,34.6,22.9,30.25,SW,221,5.0,6.0,62,0.00,,,0.00,Wunderground v.1.15,2013-01-04 15:05:00,
2013-01-04 10:15:00,34.7,22.6,30.25,SSW,198,5.0,8.0,61,0.00,,,0.00,Wunderground v.1.15,2013-01-04 15:15:00,
2013-01-04 10:20:00,34.7,23.0,30.24,South,172,6.0,8.0,62,0.00,,,0.00,Wunderground v.1.15,2013-01-04 15:20:00,
2013-01-04 10:25:00,34.8,22.7,30.24,SSW,195,5.0,5.0,61,0.00,,,0.00,Wunderground v.1.15,2013-01-04 15:25:00,
2013-01-04 10:30:00,34.9,22.8,30.24,SSW,194,5.0,5.0,61,0.00,,,0.00,Wunderground v.1.15,2013-01-04 15:30:00,
2013-01-04 10:35:00,34.9,22.8,30.24,SE,126,5.0,5.0,61,0.00,,,0.00,Wunderground v.1.15,2013-01-04 15:35:00,
2013-01-04 10:40:00,35.1,22.6,30.24,South,186,5.0,7.0,60,0.00,,,0.00,Wunderground v.1.15,2013-01-04 15:40:00,
2013-01-04 10:45:00,35.3,22.8,30.24,SSW,209,5.0,5.0,60,0.00,,,0.00,Wunderground v.1.15,2013-01-04 15:45:00,
2013-01-04 10:50:00,35.8,22.9,30.23,South,190,5.0,8.0,59,0.00,,,0.00,Wunderground v.1.15,2013-01-04 15:50:00,
2013-01-04 10:55:00,35.8,22.9,30.23,ENE,77,5.0,6.0,59,0.00,,,0.00,Wunderground v.1.15,2013-01-04 15:55:00,
2013-01-04 11:00:00,35.7,22.8,30.23,SSW,203,6.0,6.0,59,0.00,,,0.00,Wunderground v.1.15,2013-01-04 16:00:00,
2013-01-04 11:05:00,35.9,23.0,30.23,South,169,6.0,6.0,59,0.00,,,0.00,Wunderground v.1.15,2013-01-04 16:05:00,
2013-01-04 11:10:00,36.0,22.6,30.23,SW,214,5.0,9.0,58,0.00,,,0.00,Wunderground v.1.15,2013-01-04 16:10:00,
2013-01-04 11:20:00,36.4,23.0,30.22,South,176,5.0,7.0,58,0.00,,,0.00,Wunderground v.1.15,2013-01-04 16:20:00,
2013-01-04 11:25:00,36.6,22.8,30.22,SE,129,5.0,7.0,57,0.00,,,0.00,Wunderground v.1.15,2013-01-04 16:25:00,
2013-01-04 11:30:00,36.9,23.5,30.21,SSE,155,5.0,5.0,58,0.00,,,0.00,Wunderground v.1.15,2013-01-04 16:30:00,
2013-01-04 11:35:00,37.0,23.6,30.21,South,172,5.0,5.0,58,0.00,,,0.00,Wunderground v.1.15,2013-01-04 16:35:00,
2013-01-04 11:45:00,37.4,23.1,30.21,SSW,195,5.0,6.0,56,0.00,,,0.00,Wunderground v.1.15,2013-01-04 16:45:00,
2013-01-04 11:50:00,37.6,23.3,30.21,SSW,192,5.0,5.0,56,0.00,,,0.00,Wunderground v.1.15,2013-01-04 16:50:00,
2013-01-04 11:55:00,37.8,23.9,30.20,SSE,158,4.0,5.0,57,0.00,,,0.00,Wunderground v.1.15,2013-01-04 16:55:00,
2013-01-04 12:00:00,37.9,23.6,30.20,SW,214,5.0,5.0,56,0.00,,,0.00,Wunderground v.1.15,2013-01-04 17:00:00,
2013-01-04 12:05:00,37.7,23.0,30.20,East,98,5.0,6.0,55,0.00,,,0.00,Wunderground v.1.15,2013-01-04 17:05:00,
2013-01-04 12:15:00,38.4,23.6,30.19,ESE,117,4.0,4.0,55,0.00,,,0.00,Wunderground v.1.15,2013-01-04 17:15:00,
2013-01-04 12:25:00,38.6,23.8,30.19,SSE,148,4.0,5.0,55,0.00,,,0.00,Wunderground v.1.15,2013-01-04 17:25:00,
2013-01-04 12:30:00,39.0,24.2,30.18,SSW,193,3.0,8.0,55,0.00,,,0.00,Wunderground v.1.15,2013-01-04 17:30:00,
2013-01-04 12:35:00,39.4,23.2,30.18,WSW,240,4.0,8.0,52,0.00,,,0.00,Wunderground v.1.15,2013-01-04 17:35:00,
2013-01-04 12:40:00,39.5,23.8,30.17,SE,145,5.0,5.0,53,0.00,,,0.00,Wunderground v.1.15,2013-01-04 17:40:00,
2013-01-04 12:45:00,39.3,23.6,30.17,East,83,5.0,5.0,53,0.00,,,0.00,Wunderground v.1.15,2013-01-04 17:45:00,
2013-01-04 12:50:00,39.3,23.6,30.17,SSW,195,5.0,7.0,53,0.00,,,0.00,Wunderground v.1.15,2013-01-04 17:50:00,
2013-01-04 12:55:00,39.3,24.0,30.17,SSE,152,5.0,7.0,54,0.00,,,0.00,Wunderground v.1.15,2013-01-04 17:55:00,
2013-01-04 13:00:00,39.9,23.7,30.17,SE,141,5.0,5.0,52,0.00,,,0.00,Wunderground v.1.15,2013-01-04 18:00:00,
2013-01-04 13:05:00,40.3,22.6,30.17,WSW,243,3.0,5.0,49,0.00,,,0.00,Wunderground v.1.15,2013-01-04 18:05:00,
2013-01-04 13:10:00,40.6,23.4,30.17,SW,228,4.0,4.0,50,0.00,,,0.00,Wunderground v.1.15,2013-01-04 18:10:00,
2013-01-04 13:15:00,41.0,24.2,30.17,SW,224,5.0,6.0,51,0.00,,,0.00,Wunderground v.1.15,2013-01-04 18:15:00,
2013-01-04 13:25:00,40.9,21.7,30.17,West,273,4.0,6.0,46,0.00,,,0.00,Wunderground v.1.15,2013-01-04 18:25:00,
2013-01-04 13:35:00,41.2,23.0,30.17,WSW,247,6.0,6.0,48,0.00,,,0.00,Wunderground v.1.15,2013-01-04 18:35:00,
2013-01-04 13:40:00,40.9,22.2,30.17,WNW,291,5.0,7.0,47,0.00,,,0.00,Wunderground v.1.15,2013-01-04 18:40:00,
2013-01-04 13:45:00,40.8,22.1,30.17,WNW,283,6.0,6.0,47,0.00,,,0.00,Wunderground v.1.15,2013-01-04 18:45:00,
2013-01-04 13:50:00,40.8,22.1,30.17,West,281,5.0,6.0,47,0.00,,,0.00,Wunderground v.1.15,2013-01-04 18:50:00,
2013-01-04 13:55:00,40.9,22.2,30.16,West,280,5.0,5.0,47,0.00,,,0.00,Wunderground v.1.15,2013-01-04 18:55:00,
2013-01-04 14:00:00,40.8,21.1,30.16,West,260,6.0,10.0,45,0.00,,,0.00,Wunderground v.1.15,2013-01-04 19:00:00,
2013-01-04 14:05:00,40.8,21.6,30.16,WSW,243,8.0,10.0,46,0.00,,,0.00,Wunderground v.1.15,2013-01-04 19:05:00,
2013-01-04 14:10:00,40.7,21.5,30.16,West,262,8.0,8.0,46,0.00,,,0.00,Wunderground v.1.15,2013-01-04 19:10:00,
2013-01-04 14:20:00,40.7,21.5,30.15,West,276,8.0,11.0,46,0.00,,,0.00,Wunderground v.1.15,2013-01-04 19:20:00,
2013-01-04 14:25:00,40.7,21.5,30.15,NW,316,9.0,11.0,46,0.00,,,0.00,Wunderground v.1.15,2013-01-04 19:25:00,
2013-01-04 14:30:00,40.8,22.1,30.15,WNW,288,9.0,9.0,47,0.00,,,0.00,Wunderground v.1.15,2013-01-04 19:30:00,
2013-01-04 14:35:00,40.8,21.1,30.15,West,274,8.0,9.0,45,0.00,,,0.00,Wunderground v.1.15,2013-01-04 19:35:00,
2013-01-04 14:40:00,40.8,21.1,30.15,West,269,8.0,8.0,45,0.00,,,0.00,Wunderground v.1.15,2013-01-04 19:40:00,
2013-01-04 14:50:00,40.9,21.7,30.15,WNW,285,7.0,7.0,46,0.00,,,0.00,Wunderground v.1.15,2013-01-04 19:50:00,
2013-01-04 14:55:00,41.0,21.3,30.15,NNW,328,7.0,7.0,45,0.00,,,0.00,Wunderground v.1.15,2013-01-04 19:55:00,
2013-01-04 15:00:00,41.1,21.9,30.15,WNW,284,6.0,6.0,46,0.00,,,0.00,Wunderground v.1.15,2013-01-04 20:00:00,
2013-01-04 15:05:00,41.2,21.4,30.16,West,269,5.0,6.0,45,0.00,,,0.00,Wunderground v.1.15,2013-01-04 20:05:00,
2013-01-04 15:10:00,41.1,21.9,30.16,WNW,302,5.0,5.0,46,0.00,,,0.00,Wunderground v.1.15,2013-01-04 20:10:00,
2013-01-04 15:15:00,41.2,20.9,30.15,WNW,284,5.0,6.0,44,0.00,,,0.00,Wunderground v.1.15,2013-01-04 20:15:00,
2013-01-04 15:20:00,41.0,21.3,30.16,West,277,6.0,6.0,45,0.00,,,0.00,Wunderground v.1.15,2013-01-04 20:20:00,
2013-01-04 15:25:00,40.9,20.6,30.17,WSW,252,7.0,7.0,44,0.00,,,0.00,Wunderground v.1.15,2013-01-04 20:25:00,
2013-01-04 15:30:00,40.9,21.7,30.17,WSW,252,6.0,6.0,46,0.00,,,0.00,Wunderground v.1.15,2013-01-04 20:30:00,
2013-01-04 15:35:00,40.8,21.1,30.17,West,280,5.0,6.0,45,0.00,,,0.00,Wunderground v.1.15,2013-01-04 20:35:00,
2013-01-04 15:40:00,40.5,20.8,30.17,West,263,4.0,7.0,45,0.00,,,0.00,Wunderground v.1.15,2013-01-04 20:40:00,
2013-01-04 15:45:00,40.1,21.0,30.17,WSW,255,4.0,9.0,46,0.00,,,0.00,Wunderground v.1.15,2013-01-04 20:45:00,
2013-01-04 15:55:00,39.2,21.1,30.17,West,278,7.0,7.0,48,0.00,,,0.00,Wunderground v.1.15,2013-01-04 20:55:00,
2013-01-04 16:05:00,38.7,21.2,30.18,West,276,6.0,9.0,49,0.00,,,0.00,Wunderground v.1.15,2013-01-04 21:05:00,
2013-01-04 16:10:00,38.5,21.5,30.18,West,278,5.0,5.0,50,0.00,,,0.00,Wunderground v.1.15,2013-01-04 21:10:00,
2013-01-04 16:15:00,38.3,21.3,30.18,West,274,4.0,5.0,50,0.00,,,0.00,Wunderground v.1.15,2013-01-04 21:15:00,
2013-01-04 16:20:00,38.1,21.5,30.18,WNW,284,4.0,4.0,51,0.00,,,0.00,Wunderground v.1.15,2013-01-04 21:20:00,
2013-01-04 16:25:00,38.0,21.5,30.18,West,280,3.0,4.0,51,0.00,,,0.00,Wunderground v.1.15,2013-01-04 21:25:00,
2013-01-04 16:30:00,37.8,21.3,30.18,NNW,332,2.0,2.0,51,0.00,,,0.00,Wunderground v.1.15,2013-01-04 21:30:00,
2013-01-04 16:35:00,37.7,21.6,30.18,WNW,295,2.0,2.0,52,0.00,,,0.00,Wunderground v.1.15,2013-01-04 21:35:00,
2013-01-04 16:40:00,37.6,22.0,30.18,West,263,1.0,3.0,53,0.00,,,0.00,Wunderground v.1.15,2013-01-04 21:40:00,
2013-01-04 16:45:00,37.3,21.3,30.18,WSW,253,2.0,4.0,52,0.00,,,0.00,Wunderground v.1.15,2013-01-04 21:45:00,
2013-01-04 16:55:00,37.3,20.8,30.18,WNW,285,4.0,5.0,51,0.00,,,0.00,Wunderground v.1.15,2013-01-04 21:55:00,
2013-01-04 17:00:00,37.3,20.8,30.19,West,271,4.0,4.0,51,0.00,,,0.00,Wunderground v.1.15,2013-01-04 22:00:00,
2013-01-04 17:05:00,37.1,21.5,30.18,WNW,295,2.0,4.0,53,0.00,,,0.00,Wunderground v.1.15,2013-01-04 22:05:00,
2013-01-04 17:10:00,36.8,21.3,30.19,NW,325,1.0,1.0,53,0.00,,,0.00,Wunderground v.1.15,2013-01-04 22:10:00,
2013-01-04 17:15:00,36.5,21.0,30.19,West,276,1.0,1.0,53,0.00,,,0.00,Wunderground v.1.15,2013-01-04 22:15:00,
2013-01-04 17:20:00,36.5,21.0,30.19,West,269,2.0,2.0,53,0.00,,,0.00,Wunderground v.1.15,2013-01-04 22:20:00,
2013-01-04 17:25:00,36.1,21.5,30.19,West,274,1.0,2.0,55,0.00,,,0.00,Wunderground v.1.15,2013-01-04 22:25:00,
2013-01-04 17:30:00,35.6,21.0,30.19,West,260,0.0,0.0,55,0.00,,,0.00,Wunderground v.1.15,2013-01-04 22:30:00,
2013-01-04 17:35:00,35.2,21.5,30.19,West,260,0.0,0.0,57,0.00,,,0.00,Wunderground v.1.15,2013-01-04 22:35:00,
2013-01-04 17:40:00,34.8,21.1,30.19,WNW,297,0.0,0.0,57,0.00,,,0.00,Wunderground v.1.15,2013-01-04 22:40:00,
2013-01-04 17:45:00,34.3,20.6,30.20,WNW,298,0.0,0.0,57,0.00,,,0.00,Wunderground v.1.15,2013-01-04 22:45:00,
2013-01-04 17:55:00,34.3,20.2,30.19,WSW,257,1.0,2.0,56,0.00,,,0.00,Wunderground v.1.15,2013-01-04 22:55:00,
2013-01-04 18:00:00,34.4,20.3,30.20,West,269,2.0,4.0,56,0.00,,,0.00,Wunderground v.1.15,2013-01-04 23:00:00,
2013-01-04 18:05:00,34.4,20.7,30.20,WSW,256,2.0,4.0,57,0.00,,,0.00,Wunderground v.1.15,2013-01-04 23:05:00,
2013-01-04 18:10:00,34.5,20.0,30.20,SW,232,2.0,2.0,55,0.00,,,0.00,Wunderground v.1.15,2013-01-04 23:10:00,
2013-01-04 18:20:00,35.1,19.7,30.20,SW,225,4.0,4.0,53,0.00,,,0.00,Wunderground v.1.15,2013-01-04 23:20:00,
2013-01-04 18:25:00,34.9,19.9,30.20,South,170,3.0,4.0,54,0.00,,,0.00,Wunderground v.1.15,2013-01-04 23:25:00,
2013-01-04 18:30:00,34.8,19.8,30.21,SSW,193,2.0,2.0,54,0.00,,,0.00,Wunderground v.1.15,2013-01-04 23:30:00,
2013-01-04 18:35:00,34.5,19.5,30.21,SSW,197,2.0,2.0,54,0.00,,,0.00,Wunderground v.1.15,2013-01-04 23:35:00,
2013-01-04 18:45:00,34.4,19.9,30.21,SSW,204,2.0,3.0,55,0.00,,,0.00,Wunderground v.1.15,2013-01-04 23:45:00,
2013-01-04 18:50:00,34.1,19.6,30.20,SE,134,2.0,2.0,55,0.00,,,0.00,Wunderground v.1.15,2013-01-04 23:50:00,
2013-01-04 18:55:00,33.9,19.4,30.21,ESE,120,1.0,2.0,55,0.00,,,0.00,Wunderground v.1.15,2013-01-04 23:55:00,
2013-01-04 19:00:00,33.9,19.4,30.21,SE,141,1.0,1.0,55,0.00,,,0.00,Wunderground v.1.15,2013-01-05 00:00:00,
2013-01-04 19:05:00,33.9,19.4,30.21,SSW,203,1.0,1.0,55,0.00,,,0.00,Wunderground v.1.15,2013-01-05 00:05:00,
2013-01-04 19:10:00,33.7,19.7,30.21,SW,216,1.0,1.0,56,0.00,,,0.00,Wunderground v.1.15,2013-01-05 00:10:00,
2013-01-04 19:15:00,33.5,19.9,30.21,SE,131,1.0,3.0,57,0.00,,,0.00,Wunderground v.1.15,2013-01-05 00:15:00,
2013-01-04 19:20:00,33.3,20.1,30.21,SSE,155,2.0,2.0,58,0.00,,,0.00,Wunderground v.1.15,2013-01-05 00:20:00,
2013-01-04 19:30:00,33.1,19.9,30.22,WSW,238,2.0,2.0,58,0.00,,,0.00,Wunderground v.1.15,2013-01-05 00:30:00,
2013-01-04 19:35:00,33.0,19.8,30.22,WSW,249,1.0,2.0,58,0.00,,,0.00,Wunderground v.1.15,2013-01-05 00:35:00,
2013-01-04 19:40:00,33.1,19.9,30.23,SSW,205,1.0,2.0,58,0.00,,,0.00,Wunderground v.1.15,2013-01-05 00:40:00,
2013-01-04 19:45:00,32.9,19.7,30.22,SSW,197,2.0,2.0,58,0.00,,,0.00,Wunderground v.1.15,2013-01-05 00:45:00,
2013-01-04 19:50:00,32.7,19.9,30.22,WSW,245,2.0,2.0,59,0.00,,,0.00,Wunderground v.1.15,2013-01-05 00:50:00,
2013-01-04 19:55:00,33.1,19.5,30.22,WSW,256,2.0,5.0,57,0.00,,,0.00,Wunderground v.1.15,2013-01-05 00:55:00,
2013-01-04 20:00:00,33.7,19.2,30.22,SW,232,4.0,4.0,55,0.00,,,0.00,Wunderground v.1.15,2013-01-05 01:00:00,
2013-01-04 20:05:00,33.9,19.4,30.22,SSW,208,4.0,4.0,55,0.00,,,0.00,Wunderground v.1.15,2013-01-05 01:05:00,
2013-01-04 20:10:00,34.1,19.6,30.22,WSW,255,3.0,3.0,55,0.00,,,0.00,Wunderground v.1.15,2013-01-05 01:10:00,
2013-01-04 20:15:00,33.4,19.8,30.22,SW,232,2.0,3.0,57,0.00,,,0.00,Wunderground v.1.15,2013-01-05 01:15:00,
2013-01-04 20:25:00,32.7,19.5,30.22,WSW,251,2.0,4.0,58,0.00,,,0.00,Wunderground v.1.15,2013-01-05 01:25:00,
2013-01-04 20:35:00,32.5,19.7,30.22,SSW,202,3.0,3.0,59,0.00,,,0.00,Wunderground v.1.15,2013-01-05 01:35:00,
2013-01-04 20:40:00,32.0,19.3,30.23,SSW,207,2.0,3.0,59,0.00,,,0.00,Wunderground v.1.15,2013-01-05 01:40:00,
2013-01-04 20:45:00,31.7,19.8,30.23,SW,217,2.0,2.0,61,0.00,,,0.00,Wunderground v.1.15,2013-01-05 01:45:00,
2013-01-04 20:55:00,30.6,19.9,30.22,SE,129,0.0,0.0,64,0.00,,,0.00,Wunderground v.1.15,2013-01-05 01:55:00,
2013-01-04 21:00:00,30.3,19.6,30.23,SE,134,0.0,0.0,64,0.00,,,0.00,Wunderground v.1.15,2013-01-05 02:00:00,
2013-01-04 21:10:00,30.1,19.7,30.23,SSW,206,0.0,1.0,65,0.00,,,0.00,Wunderground v.1.15,2013-01-05 02:10:00,
2013-01-04 21:15:00,29.6,20.0,30.23,WSW,239,1.0,1.0,67,0.00,,,0.00,Wunderground v.1.15,2013-01-05 02:15:00,
2013-01-04 21:25:00,29.1,19.5,30.23,SSE,150,2.0,2.0,67,0.00,,,0.00,Wunderground v.1.15,2013-01-05 02:25:00,
2013-01-04 21:30:00,29.3,20.0,30.23,SSW,198,2.0,2.0,68,0.00,,,0.00,Wunderground v.1.15,2013-01-05 02:30:00,
2013-01-04 21:35:00,29.5,19.9,30.23,SSE,159,2.0,2.0,67,0.00,,,0.00,Wunderground v.1.15,2013-01-05 02:35:00,
2013-01-04 21:40:00,29.6,20.0,30.22,ESE,122,2.0,3.0,67,0.00,,,0.00,Wunderground v.1.15,2013-01-05 02:40:00,
2013-01-04 21:45:00,29.9,19.9,30.23,SW,224,3.0,3.0,66,0.00,,,0.00,Wunderground v.1.15,2013-01-05 02:45:00,
2013-01-04 21:55:00,30.0,20.0,30.23,SW,218,2.0,3.0,66,0.00,,,0.00,Wunderground v.1.15,2013-01-05 02:55:00,
2013-01-04 22:00:00,29.8,19.8,30.23,SW,215,2.0,3.0,66,0.00,,,0.00,Wunderground v.1.15,2013-01-05 03:00:00,
2013-01-04 22:05:00,29.6,20.0,30.23,West,273,2.0,3.0,67,0.00,,,0.00,Wunderground v.1.15,2013-01-05 03:05:00,
2013-01-04 22:10:00,29.4,19.8,30.23,SSW,207,2.0,3.0,67,0.00,,,0.00,Wunderground v.1.15,2013-01-05 03:10:00,
2013-01-04 22:15:00,29.5,19.9,30.22,South,186,3.0,4.0,67,0.00,,,0.00,Wunderground v.1.15,2013-01-05 03:15:00,
2013-01-04 22:20:00,29.8,20.2,30.23,SSW,197,4.0,4.0,67,0.00,,,0.00,Wunderground v.1.15,2013-01-05 03:20:00,
2013-01-04 22:30:00,29.8,20.2,30.23,WSW,249,3.0,4.0,67,0.00,,,0.00,Wunderground v.1.15,2013-01-05 03:30:00,
2013-01-04 22:35:00,29.7,20.1,30.23,WSW,256,2.0,4.0,67,0.00,,,0.00,Wunderground v.1.15,2013-01-05 03:35:00,
2013-01-04 22:40:00,29.5,20.2,30.23,SSW,204,2.0,2.0,68,0.00,,,0.00,Wunderground v.1.15,2013-01-05 03:40:00,
2013-01-04 22:45:00,29.4,20.1,30.23,SSW,210,2.0,2.0,68,0.00,,,0.00,Wunderground v.1.15,2013-01-05 03:45:00,
2013-01-04 22:55:00,29.1,19.8,30.23,SW,222,1.0,2.0,68,0.00,,,0.00,Wunderground v.1.15,2013-01-05 03:55:00,
2013-01-04 23:00:00,28.8,19.6,30.23,SW,222,0.0,0.0,68,0.00,,,0.00,Wunderground v.1.15,2013-01-05 04:00:00,
2013-01-04 23:05:00,28.3,19.4,30.23,SW,226,0.0,1.0,69,0.00,,,0.00,Wunderground v.1.15,2013-01-05 04:05:00,
2013-01-04 23:15:00,27.5,19.3,30.23,SSW,205,0.0,1.0,71,0.00,,,0.00,Wunderground v.1.15,2013-01-05 04:15:00,
2013-01-04 23:20:00,27.1,18.9,30.23,West,274,0.0,2.0,71,0.00,,,0.00,Wunderground v.1.15,2013-01-05 04:20:00,
2013-01-04 23:25:00,27.4,19.6,30.23,WSW,257,0.0,2.0,72,0.00,,,0.00,Wunderground v.1.15,2013-01-05 04:25:00,
2013-01-04 23:30:00,27.3,19.1,30.23,WSW,251,0.0,0.0,71,0.00,,,0.00,Wunderground v.1.15,2013-01-05 04:30:00,
2013-01-04 23:35:00,27.4,19.6,30.23,South,175,1.0,1.0,72,0.00,,,0.00,Wunderground v.1.15,2013-01-05 04:35:00,
2013-01-04 23:40:00,27.9,19.7,30.23,WSW,253,1.0,1.0,71,0.00,,,0.00,Wunderground v.1.15,2013-01-05 04:40:00,
2013-01-04 23:45:00,28.4,19.9,30.22,South,191,2.0,2.0,70,0.00,,,0.00,Wunderground v.1.15,2013-01-05 04:45:00,
2013-01-04 23:50:00,28.9,20.0,30.22,SE,131,2.0,2.0,69,0.00,,,0.00,Wunderground v.1.15,2013-01-05 04:50:00,
2013-01-04 23:55:00,28.6,19.7,30.22,ESE,114,1.0,2.0,69,0.00,,,0.00,Wunderground v.1.15,2013-01-05 04:55:00,